createdAt,value
2023-03-16T00:00:09.898Z,14
2023-03-16T00:00:40.383Z,14
2023-03-16T00:01:11.521Z,14
2023-03-16T00:01:42.156Z,15
2023-03-16T00:02:12.988Z,15
2023-03-16T00:02:43.976Z,15
2023-03-16T00:03:15.092Z,14
2023-03-16T00:03:46.232Z,14
2023-03-16T00:04:16.792Z,14
2023-03-16T00:04:48.100Z,14
2023-03-16T00:05:19.542Z,14
2023-03-16T00:05:50.180Z,14
2023-03-16T00:06:20.910Z,14
2023-03-16T00:06:52.126Z,14
2023-03-16T00:07:22.852Z,14
2023-03-16T00:07:54.184Z,14
2023-03-16T00:08:25.303Z,14
2023-03-16T00:08:55.834Z,14
2023-03-16T00:09:27.191Z,14
2023-03-16T00:09:58.160Z,14
2023-03-16T00:10:29.817Z,14
2023-03-16T00:11:00.467Z,14
2023-03-16T00:11:31.346Z,14
2023-03-16T00:12:02.123Z,14
2023-03-16T00:12:33.100Z,14
2023-03-16T00:13:03.924Z,14
2023-03-16T00:13:35.094Z,14
2023-03-16T00:14:06.121Z,14
2023-03-16T00:14:37.247Z,14
2023-03-16T00:15:09.030Z,14
2023-03-16T00:15:39.192Z,14
2023-03-16T00:16:10.665Z,14
2023-03-16T00:16:41.251Z,14
2023-03-16T00:17:11.865Z,14
2023-03-16T00:17:43.160Z,14
2023-03-16T00:18:14.104Z,14
2023-03-16T00:18:45.609Z,14
2023-03-16T00:19:16.603Z,14
2023-03-16T00:19:47.753Z,14
2023-03-16T00:20:19.313Z,14
2023-03-16T00:20:51.131Z,14
2023-03-16T00:21:20.399Z,14
2023-03-16T00:21:52.236Z,14
2023-03-16T00:22:21.938Z,14
2023-03-16T00:22:54.049Z,14
2023-03-16T00:23:24.072Z,14
2023-03-16T00:23:55.330Z,14
2023-03-16T00:24:26.108Z,14
2023-03-16T00:24:57.230Z,14
2023-03-16T00:25:28.686Z,14
2023-03-16T00:25:58.971Z,14
2023-03-16T00:26:30.163Z,14
2023-03-16T00:27:01.173Z,14
2023-03-16T00:27:32.348Z,14
2023-03-16T00:28:02.984Z,14
2023-03-16T00:28:34.119Z,14
2023-03-16T00:29:04.870Z,14
2023-03-16T00:29:35.977Z,14
2023-03-16T00:30:08.103Z,14
2023-03-16T00:30:38.441Z,14
2023-03-16T00:31:09.579Z,14
2023-03-16T00:31:40.267Z,14
2023-03-16T00:32:10.977Z,14
2023-03-16T00:32:42.225Z,14
2023-03-16T00:33:14.626Z,14
2023-03-16T00:33:44.299Z,14
2023-03-16T00:34:15.214Z,13
2023-03-16T00:34:46.273Z,14
2023-03-16T00:35:17.810Z,13
2023-03-16T00:35:48.244Z,14
2023-03-16T00:36:19.352Z,14
2023-03-16T00:36:49.953Z,14
2023-03-16T00:37:21.243Z,14
2023-03-16T00:37:52.432Z,14
2023-03-16T00:38:23.247Z,14
2023-03-16T00:38:54.010Z,14
2023-03-16T00:39:25.576Z,14
2023-03-16T00:39:56.563Z,14
2023-03-16T00:40:28.140Z,14
2023-03-16T00:41:29.742Z,14
2023-03-16T00:42:00.166Z,14
2023-03-16T00:42:31.294Z,14
2023-03-16T00:43:02.401Z,14
2023-03-16T00:43:33.306Z,14
2023-03-16T00:44:04.321Z,14
2023-03-16T00:44:35.446Z,14
2023-03-16T00:45:07.222Z,14
2023-03-16T00:45:37.352Z,14
2023-03-16T00:46:08.566Z,14
2023-03-16T00:46:39.285Z,14
2023-03-16T00:47:10.220Z,14
2023-03-16T00:47:41.339Z,14
2023-03-16T00:48:12.266Z,14
2023-03-16T00:48:43.372Z,14
2023-03-16T00:49:14.620Z,14
2023-03-16T00:49:45.312Z,14
2023-03-16T00:50:16.722Z,14
2023-03-16T00:50:47.118Z,15
2023-03-16T00:51:18.295Z,15
2023-03-16T00:51:49.376Z,15
2023-03-16T00:52:22.214Z,14
2023-03-16T00:52:51.434Z,15
2023-03-16T00:53:25.039Z,15
2023-03-16T00:53:53.239Z,15
2023-03-16T00:54:25.010Z,14
2023-03-16T00:54:55.050Z,14
2023-03-16T00:55:27.224Z,14
2023-03-16T00:55:57.062Z,14
2023-03-16T00:56:28.587Z,14
2023-03-16T00:56:59.257Z,14
2023-03-16T00:57:30.544Z,14
2023-03-16T00:58:01.596Z,14
2023-03-16T00:58:32.355Z,14
2023-03-16T00:59:03.550Z,14
2023-03-16T00:59:34.384Z,14
2023-03-16T01:00:07.939Z,14
2023-03-16T01:00:36.869Z,14
2023-03-16T01:01:07.404Z,14
2023-03-16T01:01:38.799Z,14
2023-03-16T01:02:09.030Z,14
2023-03-16T01:02:40.707Z,14
2023-03-16T01:03:11.582Z,14
2023-03-16T01:03:42.540Z,14
2023-03-16T01:04:13.083Z,14
2023-03-16T01:04:44.435Z,14
2023-03-16T01:05:16.083Z,14
2023-03-16T01:05:46.298Z,14
2023-03-16T01:06:17.533Z,14
2023-03-16T01:06:48.266Z,14
2023-03-16T01:07:19.395Z,14
2023-03-16T01:07:50.431Z,14
2023-03-16T01:08:21.555Z,14
2023-03-16T01:08:52.164Z,14
2023-03-16T01:09:23.071Z,14
2023-03-16T01:09:54.576Z,14
2023-03-16T01:10:26.433Z,14
2023-03-16T01:10:56.090Z,14
2023-03-16T01:11:27.221Z,14
2023-03-16T01:11:58.781Z,14
2023-03-16T01:12:29.395Z,14
2023-03-16T01:13:00.466Z,14
2023-03-16T01:13:31.071Z,14
2023-03-16T01:14:02.136Z,14
2023-03-16T01:14:33.082Z,14
2023-03-16T01:15:05.341Z,14
2023-03-16T01:15:35.180Z,14
2023-03-16T01:16:06.092Z,14
2023-03-16T01:16:37.729Z,14
2023-03-16T01:17:08.430Z,14
2023-03-16T01:17:39.304Z,14
2023-03-16T01:18:10.467Z,14
2023-03-16T01:18:41.334Z,14
2023-03-16T01:19:12.251Z,14
2023-03-16T01:19:43.252Z,14
2023-03-16T01:20:14.691Z,14
2023-03-16T01:20:45.295Z,14
2023-03-16T01:21:16.297Z,14
2023-03-16T01:21:47.365Z,14
2023-03-16T01:22:18.330Z,14
2023-03-16T01:22:49.349Z,14
2023-03-16T01:23:20.312Z,14
2023-03-16T01:23:53.186Z,14
2023-03-16T01:24:22.680Z,14
2023-03-16T01:24:53.777Z,14
2023-03-16T01:25:25.025Z,14
2023-03-16T01:25:56.334Z,14
2023-03-16T01:26:26.605Z,14
2023-03-16T01:26:57.071Z,14
2023-03-16T01:27:28.266Z,14
2023-03-16T01:27:59.311Z,14
2023-03-16T01:28:30.422Z,14
2023-03-16T01:29:01.312Z,14
2023-03-16T01:29:32.442Z,14
2023-03-16T01:30:03.980Z,14
2023-03-16T01:30:34.417Z,14
2023-03-16T01:31:05.456Z,14
2023-03-16T01:31:36.751Z,14
2023-03-16T01:32:07.486Z,14
2023-03-16T01:32:38.524Z,14
2023-03-16T01:33:09.187Z,14
2023-03-16T01:33:40.268Z,14
2023-03-16T01:34:11.768Z,14
2023-03-16T01:34:42.325Z,14
2023-03-16T01:35:13.825Z,14
2023-03-16T01:35:44.430Z,14
2023-03-16T01:36:15.188Z,14
2023-03-16T01:36:46.423Z,14
2023-03-16T01:37:17.225Z,14
2023-03-16T01:37:48.333Z,14
2023-03-16T01:38:19.379Z,14
2023-03-16T01:38:50.487Z,14
2023-03-16T01:39:21.402Z,14
2023-03-16T01:39:52.145Z,14
2023-03-16T01:40:24.106Z,14
2023-03-16T01:40:54.181Z,14
2023-03-16T01:41:25.550Z,14
2023-03-16T01:41:56.452Z,14
2023-03-16T01:42:27.398Z,14
2023-03-16T01:42:58.417Z,14
2023-03-16T01:43:29.486Z,14
2023-03-16T01:44:00.443Z,14
2023-03-16T01:44:31.668Z,14
2023-03-16T01:45:02.961Z,14
2023-03-16T01:45:33.614Z,14
2023-03-16T01:46:04.636Z,14
2023-03-16T01:46:35.837Z,14
2023-03-16T01:47:06.372Z,14
2023-03-16T01:47:37.152Z,14
2023-03-16T01:48:08.383Z,14
2023-03-16T01:48:39.192Z,14
2023-03-16T01:49:10.268Z,14
2023-03-16T01:49:41.665Z,14
2023-03-16T01:50:12.846Z,14
2023-03-16T01:50:43.452Z,14
2023-03-16T01:51:14.491Z,14
2023-03-16T01:51:45.860Z,14
2023-03-16T01:52:16.457Z,14
2023-03-16T01:52:47.224Z,14
2023-03-16T01:53:18.230Z,14
2023-03-16T01:53:49.423Z,14
2023-03-16T01:54:20.548Z,14
2023-03-16T01:54:51.887Z,14
2023-03-16T01:55:24.232Z,14
2023-03-16T01:55:53.390Z,14
2023-03-16T01:56:26.327Z,14
2023-03-16T01:56:55.391Z,14
2023-03-16T01:57:26.481Z,14
2023-03-16T01:57:57.190Z,14
2023-03-16T01:58:28.577Z,14
2023-03-16T01:58:59.525Z,14
2023-03-16T01:59:30.622Z,13
2023-03-16T02:00:02.364Z,14
2023-03-16T02:00:32.306Z,14
2023-03-16T02:01:03.407Z,14
2023-03-16T02:01:35.018Z,14
2023-03-16T02:02:05.225Z,14
2023-03-16T02:02:36.516Z,14
2023-03-16T02:03:07.202Z,14
2023-03-16T02:03:38.558Z,13
2023-03-16T02:04:09.255Z,14
2023-03-16T02:04:40.349Z,14
2023-03-16T02:05:11.597Z,14
2023-03-16T02:05:42.607Z,13
2023-03-16T02:06:13.554Z,14
2023-03-16T02:06:44.649Z,13
2023-03-16T02:07:15.441Z,13
2023-03-16T02:07:46.622Z,13
2023-03-16T02:08:17.547Z,13
2023-03-16T02:08:48.441Z,13
2023-03-16T02:09:19.653Z,13
2023-03-16T02:09:50.553Z,13
2023-03-16T02:10:22.272Z,13
2023-03-16T02:10:52.423Z,14
2023-03-16T02:11:23.574Z,14
2023-03-16T02:11:54.956Z,14
2023-03-16T02:12:25.346Z,14
2023-03-16T02:12:56.602Z,14
2023-03-16T02:13:29.248Z,14
2023-03-16T02:13:58.551Z,14
2023-03-16T02:14:29.601Z,14
2023-03-16T02:15:01.150Z,14
2023-03-16T02:15:31.643Z,14
2023-03-16T02:16:02.538Z,13
2023-03-16T02:16:33.782Z,13
2023-03-16T02:17:04.512Z,14
2023-03-16T02:17:35.524Z,14
2023-03-16T02:18:06.577Z,14
2023-03-16T02:18:37.498Z,13
2023-03-16T02:19:08.310Z,14
2023-03-16T02:19:39.256Z,13
2023-03-16T02:20:11.120Z,14
2023-03-16T02:20:41.519Z,14
2023-03-16T02:21:12.645Z,14
2023-03-16T02:21:43.888Z,14
2023-03-16T02:22:14.584Z,14
2023-03-16T02:22:45.515Z,14
2023-03-16T02:23:16.551Z,14
2023-03-16T02:23:47.531Z,14
2023-03-16T02:24:18.215Z,13
2023-03-16T02:24:49.273Z,13
2023-03-16T02:25:20.872Z,13
2023-03-16T02:25:51.505Z,13
2023-03-16T02:26:22.541Z,14
2023-03-16T02:26:55.483Z,13
2023-03-16T02:27:24.601Z,14
2023-03-16T02:27:56.611Z,13
2023-03-16T02:28:26.622Z,13
2023-03-16T02:28:57.255Z,14
2023-03-16T02:29:28.597Z,13
2023-03-16T02:29:59.703Z,14
2023-03-16T02:30:31.864Z,13
2023-03-16T02:31:01.360Z,13
2023-03-16T02:31:32.957Z,13
2023-03-16T02:32:03.429Z,13
2023-03-16T02:32:34.582Z,13
2023-03-16T02:33:08.678Z,14
2023-03-16T02:33:36.583Z,13
2023-03-16T02:34:07.529Z,13
2023-03-16T02:34:38.527Z,13
2023-03-16T02:35:09.977Z,14
2023-03-16T02:35:40.794Z,14
2023-03-16T02:36:11.373Z,14
2023-03-16T02:36:42.507Z,13
2023-03-16T02:37:13.321Z,14
2023-03-16T02:37:44.292Z,13
2023-03-16T02:38:15.652Z,14
2023-03-16T02:38:46.548Z,14
2023-03-16T02:39:17.617Z,14
2023-03-16T02:39:48.740Z,14
2023-03-16T02:40:20.263Z,14
2023-03-16T02:40:50.636Z,14
2023-03-16T02:41:21.592Z,14
2023-03-16T02:41:52.790Z,14
2023-03-16T02:42:23.581Z,14
2023-03-16T02:42:54.507Z,14
2023-03-16T02:43:25.673Z,14
2023-03-16T02:43:56.598Z,14
2023-03-16T02:44:27.716Z,14
2023-03-16T02:44:58.584Z,14
2023-03-16T02:45:30.749Z,15
2023-03-16T02:46:00.399Z,22
2023-03-16T02:46:31.597Z,21
2023-03-16T02:47:02.836Z,21
2023-03-16T02:47:33.520Z,21
2023-03-16T02:48:04.720Z,21
2023-03-16T02:48:35.623Z,21
2023-03-16T02:49:06.302Z,22
2023-03-16T02:49:37.395Z,23
2023-03-16T02:50:08.697Z,26
2023-03-16T02:50:39.553Z,25
2023-03-16T02:51:10.594Z,25
2023-03-16T02:51:41.493Z,29
2023-03-16T02:52:12.600Z,28
2023-03-16T02:52:43.513Z,28
2023-03-16T02:53:14.339Z,28
2023-03-16T02:53:45.619Z,28
2023-03-16T02:54:16.614Z,28
2023-03-16T02:54:47.636Z,28
2023-03-16T02:55:19.289Z,28
2023-03-16T02:55:49.667Z,28
2023-03-16T02:56:20.404Z,28
2023-03-16T02:56:51.387Z,53
2023-03-16T02:57:22.316Z,49
2023-03-16T02:57:53.476Z,43
2023-03-16T02:58:25.545Z,40
2023-03-16T02:58:55.728Z,40
2023-03-16T02:59:28.159Z,41
2023-03-16T02:59:57.512Z,39
2023-03-16T03:00:30.153Z,35
2023-03-16T03:00:59.613Z,34
2023-03-16T03:01:30.489Z,42
2023-03-16T03:02:01.729Z,49
2023-03-16T03:02:32.427Z,45
2023-03-16T03:03:03.482Z,45
2023-03-16T03:03:34.598Z,45
2023-03-16T03:04:05.428Z,44
2023-03-16T03:04:36.585Z,44
2023-03-16T03:05:07.766Z,40
2023-03-16T03:05:38.518Z,40
2023-03-16T03:06:09.471Z,40
2023-03-16T03:06:40.732Z,40
2023-03-16T03:07:11.533Z,39
2023-03-16T03:07:42.380Z,39
2023-03-16T03:08:13.601Z,39
2023-03-16T03:08:44.598Z,39
2023-03-16T03:09:15.648Z,39
2023-03-16T03:09:46.725Z,39
2023-03-16T03:10:17.928Z,39
2023-03-16T03:10:48.460Z,40
2023-03-16T03:11:19.433Z,40
2023-03-16T03:11:50.656Z,39
2023-03-16T03:12:21.552Z,39
2023-03-16T03:12:52.452Z,39
2023-03-16T03:13:23.767Z,39
2023-03-16T03:13:55.030Z,50
2023-03-16T03:14:25.498Z,51
2023-03-16T03:14:56.594Z,48
2023-03-16T03:15:28.584Z,47
2023-03-16T03:15:58.670Z,48
2023-03-16T03:16:29.772Z,54
2023-03-16T03:17:00.548Z,50
2023-03-16T03:17:31.582Z,47
2023-03-16T03:18:02.716Z,36
2023-03-16T03:18:33.410Z,35
2023-03-16T03:19:04.962Z,31
2023-03-16T03:19:35.413Z,33
2023-03-16T03:20:06.750Z,22
2023-03-16T03:20:38.010Z,31
2023-03-16T03:21:08.491Z,29
2023-03-16T03:21:39.447Z,28
2023-03-16T03:22:10.627Z,20
2023-03-16T03:22:41.462Z,19
2023-03-16T03:23:12.513Z,24
2023-03-16T03:23:43.526Z,34
2023-03-16T03:24:14.864Z,31
2023-03-16T03:24:45.519Z,26
2023-03-16T03:25:16.779Z,2
2023-03-16T03:25:47.654Z,23
2023-03-16T03:26:18.409Z,22
2023-03-16T03:26:49.417Z,23
2023-03-16T03:27:20.772Z,36
2023-03-16T03:27:51.566Z,26
2023-03-16T03:28:22.640Z,26
2023-03-16T03:28:53.488Z,26
2023-03-16T03:29:24.800Z,25
2023-03-16T03:29:56.529Z,25
2023-03-16T03:30:27.825Z,30
2023-03-16T03:30:58.989Z,42
2023-03-16T03:31:28.604Z,27
2023-03-16T03:31:59.844Z,27
2023-03-16T03:32:30.980Z,26
2023-03-16T03:33:01.933Z,26
2023-03-16T03:33:32.883Z,26
2023-03-16T03:34:03.538Z,26
2023-03-16T03:34:35.856Z,26
2023-03-16T03:35:06.000Z,26
2023-03-16T03:35:36.754Z,26
2023-03-16T03:36:07.804Z,10
2023-03-16T03:36:38.907Z,10
2023-03-16T03:37:09.722Z,9
2023-03-16T03:37:42.198Z,9
2023-03-16T03:38:12.902Z,11
2023-03-16T03:38:43.701Z,9
2023-03-16T03:39:13.941Z,9
2023-03-16T03:39:46.523Z,9
2023-03-16T03:40:16.650Z,9
2023-03-16T03:40:47.717Z,9
2023-03-16T03:41:18.836Z,19
2023-03-16T03:41:49.823Z,17
2023-03-16T03:42:21.582Z,16
2023-03-16T03:42:52.415Z,16
2023-03-16T03:43:23.256Z,14
2023-03-16T03:43:54.469Z,13
2023-03-16T03:44:25.111Z,13
2023-03-16T03:44:56.182Z,13
2023-03-16T03:45:30.379Z,13
2023-03-16T03:45:57.307Z,13
2023-03-16T03:46:30.184Z,13
2023-03-16T03:47:00.228Z,13
2023-03-16T03:47:31.440Z,13
2023-03-16T03:48:01.758Z,13
2023-03-16T03:48:31.954Z,13
2023-03-16T03:49:03.921Z,17
2023-03-16T03:49:35.280Z,19
2023-03-16T03:50:07.021Z,18
2023-03-16T03:50:36.883Z,17
2023-03-16T03:51:08.036Z,17
2023-03-16T03:51:39.004Z,19
2023-03-16T03:52:09.437Z,16
2023-03-16T03:52:40.989Z,16
2023-03-16T03:53:11.693Z,16
2023-03-16T03:53:42.857Z,16
2023-03-16T03:54:15.363Z,16
2023-03-16T03:54:44.184Z,16
2023-03-16T03:55:17.017Z,16
2023-03-16T03:55:47.550Z,16
2023-03-16T03:56:17.961Z,16
2023-03-16T03:56:48.864Z,14
2023-03-16T03:57:21.801Z,14
2023-03-16T03:57:50.737Z,14
2023-03-16T03:58:21.861Z,13
2023-03-16T03:58:53.173Z,13
2023-03-16T03:59:23.946Z,13
2023-03-16T03:59:54.621Z,13
2023-03-16T04:00:27.874Z,14
2023-03-16T04:00:57.179Z,13
2023-03-16T04:01:29.898Z,14
2023-03-16T04:01:59.126Z,13
2023-03-16T04:02:33.164Z,13
2023-03-16T04:03:01.403Z,13
2023-03-16T04:03:34.225Z,14
2023-03-16T04:04:03.543Z,13
2023-03-16T04:04:34.281Z,13
2023-03-16T04:05:05.760Z,13
2023-03-16T04:05:36.408Z,11
2023-03-16T04:06:07.209Z,17
2023-03-16T04:06:38.308Z,17
2023-03-16T04:07:09.609Z,16
2023-03-16T04:07:40.289Z,10
2023-03-16T04:08:11.087Z,12
2023-03-16T04:08:41.980Z,13
2023-03-16T04:09:13.424Z,16
2023-03-16T04:09:44.927Z,55
2023-03-16T04:10:16.802Z,22
2023-03-16T04:10:46.219Z,13
2023-03-16T04:11:17.170Z,20
2023-03-16T04:11:48.496Z,21
2023-03-16T04:12:19.048Z,22
2023-03-16T04:12:49.836Z,17
2023-03-16T04:13:20.218Z,17
2023-03-16T04:13:52.196Z,21
2023-03-16T04:14:23.629Z,19
2023-03-16T04:14:54.389Z,24
2023-03-16T04:15:28.205Z,23
2023-03-16T04:15:55.382Z,24
2023-03-16T04:16:27.404Z,25
2023-03-16T04:16:59.135Z,24
2023-03-16T04:17:28.605Z,24
2023-03-16T04:18:00.796Z,24
2023-03-16T04:18:30.255Z,24
2023-03-16T04:19:00.683Z,24
2023-03-16T04:19:31.715Z,24
2023-03-16T04:20:02.920Z,23
2023-03-16T04:20:33.814Z,23
2023-03-16T04:21:04.992Z,21
2023-03-16T04:21:35.799Z,20
2023-03-16T04:22:06.965Z,20
2023-03-16T04:22:37.697Z,20
2023-03-16T04:23:08.866Z,18
2023-03-16T04:23:39.651Z,18
2023-03-16T04:24:10.592Z,22
2023-03-16T04:24:41.961Z,22
2023-03-16T04:25:13.798Z,22
2023-03-16T04:25:43.656Z,21
2023-03-16T04:26:14.913Z,21
2023-03-16T04:26:45.904Z,22
2023-03-16T04:27:17.095Z,21
2023-03-16T04:27:47.686Z,16
2023-03-16T04:28:18.588Z,19
2023-03-16T04:28:49.676Z,31
2023-03-16T04:29:20.996Z,16
2023-03-16T04:29:51.902Z,22
2023-03-16T04:30:24.099Z,22
2023-03-16T04:30:54.329Z,34
2023-03-16T04:31:25.152Z,38
2023-03-16T04:31:56.132Z,27
2023-03-16T04:32:26.838Z,25
2023-03-16T04:32:58.846Z,24
2023-03-16T04:33:28.866Z,23
2023-03-16T04:34:01.152Z,23
2023-03-16T04:34:31.134Z,23
2023-03-16T04:35:02.801Z,23
2023-03-16T04:35:33.043Z,23
2023-03-16T04:36:03.963Z,24
2023-03-16T04:36:34.836Z,24
2023-03-16T04:37:05.982Z,25
2023-03-16T04:37:36.905Z,25
2023-03-16T04:38:08.058Z,25
2023-03-16T04:38:39.111Z,24
2023-03-16T04:39:09.827Z,24
2023-03-16T04:39:41.427Z,24
2023-03-16T04:40:12.566Z,24
2023-03-16T04:40:42.915Z,40
2023-03-16T04:41:14.107Z,28
2023-03-16T04:41:45.030Z,20
2023-03-16T04:42:16.093Z,21
2023-03-16T04:42:46.925Z,24
2023-03-16T04:43:18.134Z,21
2023-03-16T04:43:48.920Z,25
2023-03-16T04:44:20.050Z,27
2023-03-16T04:44:51.183Z,24
2023-03-16T04:45:23.088Z,23
2023-03-16T04:45:52.776Z,23
2023-03-16T04:46:23.808Z,23
2023-03-16T04:46:54.891Z,23
2023-03-16T04:47:25.725Z,23
2023-03-16T04:47:56.740Z,23
2023-03-16T04:48:27.823Z,23
2023-03-16T04:48:59.081Z,23
2023-03-16T04:49:30.006Z,28
2023-03-16T04:50:01.110Z,28
2023-03-16T04:50:32.316Z,28
2023-03-16T04:51:02.904Z,28
2023-03-16T04:51:34.031Z,28
2023-03-16T04:52:04.752Z,28
2023-03-16T04:52:35.848Z,28
2023-03-16T04:53:06.882Z,28
2023-03-16T04:53:37.935Z,29
2023-03-16T04:54:09.089Z,29
2023-03-16T04:54:40.073Z,28
2023-03-16T04:55:11.320Z,29
2023-03-16T04:55:42.023Z,28
2023-03-16T04:56:13.207Z,28
2023-03-16T04:56:43.700Z,36
2023-03-16T04:57:14.864Z,54
2023-03-16T04:57:46.244Z,53
2023-03-16T04:58:17.149Z,52
2023-03-16T04:58:48.183Z,39
2023-03-16T04:59:19.084Z,9
2023-03-16T04:59:50.115Z,12
2023-03-16T05:00:22.475Z,10
2023-03-16T05:00:52.426Z,10
2023-03-16T05:01:22.813Z,13
2023-03-16T05:01:53.837Z,13
2023-03-16T05:02:25.349Z,13
2023-03-16T05:02:55.796Z,12
2023-03-16T05:03:26.886Z,12
2023-03-16T05:03:59.757Z,12
2023-03-16T05:04:30.807Z,12
2023-03-16T05:05:00.106Z,12
2023-03-16T05:05:33.083Z,49
2023-03-16T05:06:02.250Z,40
2023-03-16T05:06:32.857Z,23
2023-03-16T05:07:35.027Z,43
2023-03-16T05:08:05.994Z,39
2023-03-16T05:08:36.847Z,46
2023-03-16T05:09:07.857Z,43
2023-03-16T05:09:38.717Z,42
2023-03-16T05:10:10.598Z,36
2023-03-16T05:10:41.074Z,31
2023-03-16T05:11:12.279Z,30
2023-03-16T05:11:43.136Z,30
2023-03-16T05:12:14.143Z,30
2023-03-16T05:12:44.826Z,30
2023-03-16T05:13:15.993Z,30
2023-03-16T05:13:46.735Z,29
2023-03-16T05:14:17.765Z,30
2023-03-16T05:14:49.097Z,29
2023-03-16T05:15:21.192Z,30
2023-03-16T05:15:50.939Z,34
2023-03-16T05:16:22.136Z,35
2023-03-16T05:16:53.047Z,33
2023-03-16T05:17:23.938Z,33
2023-03-16T05:17:54.867Z,32
2023-03-16T05:18:25.792Z,31
2023-03-16T05:18:57.080Z,29
2023-03-16T05:19:28.015Z,16
2023-03-16T05:19:58.811Z,16
2023-03-16T05:20:31.139Z,13
2023-03-16T05:21:00.961Z,12
2023-03-16T05:21:32.073Z,358
2023-03-16T05:22:03.108Z,0
2023-03-16T05:22:34.094Z,0
2023-03-16T05:23:04.890Z,0
2023-03-16T05:23:36.118Z,0
2023-03-16T05:24:06.822Z,0
2023-03-16T05:24:38.237Z,0
2023-03-16T05:25:09.306Z,0
2023-03-16T05:25:40.382Z,0
2023-03-16T05:26:11.169Z,0
2023-03-16T05:26:41.835Z,0
2023-03-16T05:27:12.835Z,357
2023-03-16T05:27:44.208Z,356
2023-03-16T05:28:15.079Z,349
2023-03-16T05:28:46.034Z,351
2023-03-16T05:29:17.449Z,350
2023-03-16T05:29:48.057Z,351
2023-03-16T05:30:20.084Z,352
2023-03-16T05:30:50.263Z,351
2023-03-16T05:31:21.139Z,350
2023-03-16T05:31:52.394Z,349
2023-03-16T05:32:22.930Z,349
2023-03-16T05:32:54.232Z,350
2023-03-16T05:33:25.342Z,351
2023-03-16T05:33:55.951Z,351
2023-03-16T05:34:27.095Z,351
2023-03-16T05:34:58.316Z,351
2023-03-16T05:35:29.905Z,350
2023-03-16T05:36:01.576Z,350
2023-03-16T05:36:31.144Z,350
2023-03-16T05:37:03.832Z,350
2023-03-16T05:37:33.157Z,352
2023-03-16T05:38:03.994Z,352
2023-03-16T05:38:35.137Z,352
2023-03-16T05:39:06.053Z,352
2023-03-16T05:39:37.336Z,5
2023-03-16T05:40:08.968Z,8
2023-03-16T05:40:39.540Z,8
2023-03-16T05:41:10.578Z,8
2023-03-16T05:41:40.933Z,11
2023-03-16T05:42:12.676Z,11
2023-03-16T05:42:43.129Z,12
2023-03-16T05:43:13.954Z,13
2023-03-16T05:43:45.415Z,12
2023-03-16T05:44:16.482Z,12
2023-03-16T05:44:47.773Z,9
2023-03-16T05:45:19.272Z,8
2023-03-16T05:45:49.284Z,8
2023-03-16T05:46:21.107Z,7
2023-03-16T05:46:51.348Z,8
2023-03-16T05:47:22.628Z,8
2023-03-16T05:47:53.320Z,8
2023-03-16T05:48:24.012Z,14
2023-03-16T05:48:55.090Z,14
2023-03-16T05:49:26.477Z,13
2023-03-16T05:49:57.056Z,13
2023-03-16T05:50:29.121Z,13
2023-03-16T05:50:59.417Z,13
2023-03-16T05:51:31.186Z,13
2023-03-16T05:52:01.051Z,13
2023-03-16T05:52:32.201Z,13
2023-03-16T05:53:03.340Z,13
2023-03-16T05:53:34.075Z,12
2023-03-16T05:54:05.406Z,12
2023-03-16T05:54:36.459Z,12
2023-03-16T05:55:07.615Z,13
2023-03-16T05:55:38.022Z,3
2023-03-16T05:56:10.282Z,4
2023-03-16T05:56:41.316Z,4
2023-03-16T05:57:12.671Z,13
2023-03-16T05:57:42.660Z,15
2023-03-16T05:58:13.209Z,15
2023-03-16T05:58:44.030Z,16
2023-03-16T05:59:15.216Z,16
2023-03-16T05:59:46.414Z,17
2023-03-16T06:00:18.422Z,18
2023-03-16T06:00:48.359Z,20
2023-03-16T06:01:19.015Z,21
2023-03-16T06:01:50.152Z,29
2023-03-16T06:02:21.158Z,26
2023-03-16T06:02:52.949Z,20
2023-03-16T06:03:23.231Z,19
2023-03-16T06:03:54.525Z,19
2023-03-16T06:04:25.703Z,20
2023-03-16T06:04:56.314Z,20
2023-03-16T06:05:27.620Z,20
2023-03-16T06:05:58.342Z,21
2023-03-16T06:06:29.486Z,21
2023-03-16T06:07:00.413Z,46
2023-03-16T06:07:32.354Z,4
2023-03-16T06:08:02.403Z,6
2023-03-16T06:08:34.301Z,6
2023-03-16T06:09:04.244Z,7
2023-03-16T06:09:36.058Z,6
2023-03-16T06:10:06.746Z,6
2023-03-16T06:10:37.104Z,6
2023-03-16T06:11:08.165Z,6
2023-03-16T06:11:39.424Z,1
2023-03-16T06:12:10.930Z,343
2023-03-16T06:12:41.102Z,20
2023-03-16T06:13:12.075Z,26
2023-03-16T06:13:43.105Z,9
2023-03-16T06:14:14.363Z,10
2023-03-16T06:14:45.213Z,13
2023-03-16T06:15:17.538Z,15
2023-03-16T06:15:47.301Z,13
2023-03-16T06:16:18.377Z,13
2023-03-16T06:16:49.333Z,16
2023-03-16T06:17:20.530Z,14
2023-03-16T06:17:51.360Z,15
2023-03-16T06:18:22.716Z,15
2023-03-16T06:18:53.240Z,15
2023-03-16T06:19:24.300Z,14
2023-03-16T06:19:55.624Z,14
2023-03-16T06:20:27.463Z,13
2023-03-16T06:20:57.417Z,12
2023-03-16T06:21:28.924Z,11
2023-03-16T06:21:59.702Z,11
2023-03-16T06:22:30.543Z,11
2023-03-16T06:23:02.043Z,343
2023-03-16T06:23:32.272Z,349
2023-03-16T06:24:03.466Z,347
2023-03-16T06:24:34.656Z,346
2023-03-16T06:25:05.695Z,11
2023-03-16T06:25:36.948Z,27
2023-03-16T06:26:07.567Z,10
2023-03-16T06:26:38.861Z,10
2023-03-16T06:27:09.319Z,10
2023-03-16T06:27:40.123Z,10
2023-03-16T06:28:11.317Z,11
2023-03-16T06:28:42.346Z,11
2023-03-16T06:29:13.486Z,12
2023-03-16T06:29:44.556Z,13
2023-03-16T06:30:16.856Z,13
2023-03-16T06:30:47.324Z,13
2023-03-16T06:31:18.883Z,14
2023-03-16T06:31:48.615Z,16
2023-03-16T06:32:19.471Z,15
2023-03-16T06:32:50.846Z,15
2023-03-16T06:33:21.110Z,26
2023-03-16T06:33:52.435Z,35
2023-03-16T06:34:24.395Z,45
2023-03-16T06:34:54.471Z,30
2023-03-16T06:35:25.992Z,45
2023-03-16T06:35:56.646Z,38
2023-03-16T06:36:27.390Z,49
2023-03-16T06:36:58.692Z,57
2023-03-16T06:37:29.388Z,56
2023-03-16T06:38:00.471Z,55
2023-03-16T06:38:31.435Z,40
2023-03-16T06:39:03.393Z,25
2023-03-16T06:39:33.607Z,45
2023-03-16T06:40:06.298Z,58
2023-03-16T06:40:35.428Z,43
2023-03-16T06:41:06.943Z,332
2023-03-16T06:41:37.772Z,338
2023-03-16T06:42:08.268Z,356
2023-03-16T06:42:39.334Z,11
2023-03-16T06:43:10.979Z,25
2023-03-16T06:43:41.787Z,4
2023-03-16T06:44:12.701Z,14
2023-03-16T06:44:43.651Z,17
2023-03-16T06:45:15.823Z,359
2023-03-16T06:45:45.739Z,32
2023-03-16T06:46:16.204Z,33
2023-03-16T06:46:47.159Z,4
2023-03-16T06:47:18.314Z,352
2023-03-16T06:47:49.406Z,1
2023-03-16T06:48:20.508Z,0
2023-03-16T06:48:51.438Z,28
2023-03-16T06:49:22.262Z,52
2023-03-16T06:49:53.680Z,36
2023-03-16T06:50:25.207Z,33
2023-03-16T06:50:55.571Z,32
2023-03-16T06:51:26.178Z,32
2023-03-16T06:51:57.568Z,32
2023-03-16T06:52:28.735Z,29
2023-03-16T06:52:59.374Z,27
2023-03-16T06:53:30.793Z,25
2023-03-16T06:54:01.525Z,38
2023-03-16T06:54:32.494Z,31
2023-03-16T06:55:03.934Z,19
2023-03-16T06:55:34.632Z,19
2023-03-16T06:56:05.433Z,19
2023-03-16T06:56:36.269Z,44
2023-03-16T06:57:07.584Z,48
2023-03-16T06:57:38.664Z,37
2023-03-16T06:58:09.653Z,30
2023-03-16T06:58:40.596Z,30
2023-03-16T06:59:11.233Z,30
2023-03-16T06:59:42.596Z,44
2023-03-16T07:00:14.120Z,50
2023-03-16T07:00:44.270Z,40
2023-03-16T07:01:15.527Z,39
2023-03-16T07:01:46.463Z,38
2023-03-16T07:02:17.968Z,28
2023-03-16T07:02:48.262Z,4
2023-03-16T07:03:19.662Z,6
2023-03-16T07:03:50.279Z,6
2023-03-16T07:04:21.731Z,5
2023-03-16T07:04:52.554Z,5
2023-03-16T07:05:24.035Z,5
2023-03-16T07:05:54.533Z,6
2023-03-16T07:06:25.507Z,12
2023-03-16T07:06:56.777Z,8
2023-03-16T07:07:27.435Z,8
2023-03-16T07:07:58.578Z,8
2023-03-16T07:08:29.389Z,9
2023-03-16T07:09:00.695Z,9
2023-03-16T07:09:31.615Z,9
2023-03-16T07:10:02.712Z,55
2023-03-16T07:10:36.291Z,48
2023-03-16T07:11:04.631Z,46
2023-03-16T07:11:37.035Z,44
2023-03-16T07:12:06.974Z,352
2023-03-16T07:12:37.485Z,347
2023-03-16T07:13:08.208Z,356
2023-03-16T07:13:39.466Z,347
2023-03-16T07:14:10.658Z,13
2023-03-16T07:14:42.185Z,0
2023-03-16T07:15:13.821Z,24
2023-03-16T07:15:43.616Z,28
2023-03-16T07:16:14.397Z,21
2023-03-16T07:16:46.325Z,19
2023-03-16T07:17:16.615Z,16
2023-03-16T07:17:47.684Z,12
2023-03-16T07:18:18.232Z,14
2023-03-16T07:18:49.611Z,47
2023-03-16T07:19:20.774Z,45
2023-03-16T07:19:51.616Z,6
2023-03-16T07:20:23.733Z,23
2023-03-16T07:20:53.731Z,332
2023-03-16T07:21:24.703Z,359
2023-03-16T07:21:55.539Z,352
2023-03-16T07:22:26.635Z,351
2023-03-16T07:22:57.217Z,347
2023-03-16T07:23:28.888Z,0